Aérodrome :
LOGIN :

S'inscrire | Disclaimer

   EN    FR    IT 

 










Légende :    VFR   VFR Marginal   IFR   IFR Intensif   IFR Très Intensif
Visi : 
Plafond : 
>= 8 km
>= 3000ft
5 à 8 km
1000 à 3000 ft
1500m à 5 km
500 à 1000 ft
800 à 1500m
200 à 500 ft
< 800m
< 200 ft
Symboles :   Orages  Brouillard  Fortes neiges  Fortes précipitations  Vent > 20 kt
SIGMETs :   Divers  Orages  Givrage  Turbulence  Onde Orograph.  Cendres Volcan.







- Altitude de l'aérodrome : 117 ft
- Code IATA : NWI
- Voir les cartes d'approche


EGSH - Norwich

DERNIER METAR :
  • 222220Z AUTO 22004KT 9999 SCT025/// BKN031/// BKN039/// M01/M02 Q0997

METARs EXPIRÉS :
  • 222150Z AUTO 18002KT 9999 BKN033/// BKN038/// M01/M02 Q0997
  • 222120Z 25004KT 9999 FEW032 M01/M02 Q0997 TEMPO SHRASN
  • 222050Z 25005KT 9999 FEW027 M01/M02 Q0997 TEMPO SHRASN
  • 222020Z 26005KT 9999 FEW030 M00/M01 Q0997
  • 221950Z 17004KT CAVOK 00/M00 Q0997 TEMPO SHRASN

TAF TAF EGSH
Valide du 22 à 21h jusqu'au 23 à 00h UTC


222004Z 2221/2224 20008KT 9999 FEW025
TEMPO 2221/2224 3000 SHRASN BKN008
PROB30
TEMPO 2221/2224 1200 SHSN BKN004
ATIS : +44 1603 420 640
Pas de NOTAMs connus pour ce terrain.



MET'MAP, la Météo Aéronautique d'un coup d'oeil ! - Copyright ORBIFLY Décembre 2007 - Disclaimer

ORBIFLY MET'MAP TEAM :

Programmation & Développement : Alexandra Zaïnal
Conception & Développement : Baudouin d'Aumeries
Co-Programmation & Développement : Marc-Olivier Méhu
Soutien technique & logistique : Manuel Goepfert

Contact : metmap@orbifly.com




SOURCES & CREDITS :

   NOAA